ADDS METAR Data INFO
IDs: Format: Raw Decoded Include TAF

Data at: 0107 UTC 21 Oct 2017

KPAH 210053Z 17004KT 10SM CLR 18/10 A3012 RMK AO2 SLP199 T01780100
KPAH 202353Z 13005KT 10SM CLR 17/10 A3012 RMK AO2 SLP199 T01720100 10256 20172 58002
KPAH 202253Z 14005KT 10SM CLR 20/09 A3013 RMK AO2 SLP200 T02000094
KPAH 202153Z 13005KT 10SM CLR 23/10 A3013 RMK AO2 SLP200 T02280100
KPAH 202053Z 16007KT 10SM CLR 24/09 A3013 RMK AO2 SLP200 T02440089 56024
KPAH 201953Z 14008KT 10SM CLR 24/10 A3014 RMK AO2 SLP205 T02440100
KPAH 201853Z 14008KT 10SM CLR 24/10 A3016 RMK AO2 SLP213 T02440100
KPAH 201753Z 17006KT 10SM CLR 24/11 A3020 RMK AO2 SLP225 T02390106 10239 20072 58024
KPAH 201653Z VRB03KT 10SM CLR 23/11 A3023 RMK AO2 SLP236 T02280106
KPAH 201553Z 24005KT 10SM CLR 21/11 A3026 RMK AO2 SLP243 T02060111
KPAH 201453Z 22005KT 10SM CLR 18/11 A3027 RMK AO2 SLP249 T01830111 53008
KPAH 201353Z 00000KT 10SM CLR 16/11 A3026 RMK AO2 SLP246 T01560111
KPAH 201253Z 00000KT 10SM CLR 09/07 A3025 RMK AO2 SLP242 T00890072
KPAH 201227Z 00000KT 3SM BR CLR 08/07 A3024 RMK AO2 T00780067
KPAH 201217Z 00000KT 1 3/4SM BR CLR 08/06 A3024 RMK AO2 T00780061
KPAH 201153Z 00000KT 10SM CLR 08/06 A3025 RMK AO2 SLP242 T00830061 10111 20078 51011
KPAH 201053Z 17003KT 10SM CLR 10/07 A3024 RMK AO2 SLP239 T01000072
KPAH 200953Z AUTO 00000KT 9SM CLR 08/07 A3023 RMK AO2 SLP234 T00830067
KPAH 200853Z AUTO 00000KT 9SM CLR 08/07 A3022 RMK AO2 SLP230 T00830067 53002
KPAH 200753Z AUTO 00000KT 10SM CLR 08/07 A3021 RMK AO2 SLP228 T00830067
KPAH 200653Z AUTO 00000KT 10SM CLR 10/08 A3021 RMK AO2 SLP227 T01000078
KPAH 200553Z AUTO 00000KT 10SM CLR 09/08 A3021 RMK AO2 SLP228 T00940078 10167 20094 402560072 51002
KPAH 200453Z AUTO 00000KT 10SM CLR 10/08 A3021 RMK AO2 SLP227 T01000078
KPAH 200353Z 00000KT 10SM CLR 11/09 A3021 RMK AO2 SLP227 T01110089
KPAH 200253Z 25003KT 10SM CLR 12/09 A3020 RMK AO2 SLP226 T01170094 53004
KPAH 200153Z 00000KT 10SM CLR 13/09 A3019 RMK AO2 SLP223 T01280094
KPAH 200053Z 17004KT 10SM CLR 14/09 A3020 RMK AO2 SLP224 T01440094
KPAH 192353Z 17003KT 10SM CLR 17/10 A3019 RMK AO2 SLP222 T01670100 10256 20167 53002
KPAH 192253Z 17003KT 10SM CLR 22/09 A3018 RMK AO2 SLP217 T02220094
KPAH 192153Z VRB04KT 10SM CLR 24/09 A3018 RMK AO2 SLP216 T02440094
KPAH 192053Z 17004KT 10SM CLR 25/09 A3018 RMK AO2 SLP218 T02500094 56016
KPAH 191953Z 23009KT 10SM CLR 26/09 A3019 RMK AO2 SLP220 T02560094
KPAH 191853Z VRB05KT 10SM CLR 24/09 A3020 RMK AO2 SLP224 T02440094
KPAH 191753Z 24008KT 10SM CLR 24/09 A3023 RMK AO2 SLP234 T02390089 10239 20078 58011
KPAH 191653Z 23009KT 10SM CLR 22/09 A3025 RMK AO2 SLP241 T02220089
KPAH 191553Z 21008KT 10SM CLR 21/09 A3027 RMK AO2 SLP247 T02060089
KPAH 191453Z 22009KT 10SM CLR 18/08 A3026 RMK AO2 SLP247 T01780083 53013
KPAH 191353Z 22006KT 10SM CLR 15/08 A3025 RMK AO2 SLP243 T01500083